logo
Search for airport 
image banner adimage banner adimage banner ad
image banner ad

SNKV - Fazenda Campo Verde

Located in Tartarugalzinho, Brazil

ICAO - SNKV, IATA -

Data provided by Airmate  

General information

Coordinates: N1°2'34" W50°31'0"
Elevation is 49 feet MSL.
Magnetic variation is -19° East
View others Airports in Amapá

Operational data

Special qualification required
Current time UTC:
Current local time:
Weather at : - ( 0 km )
METAR: SBBG 191445Z 29009KT CAVOK 24/14 Q1019
View NOTAMs / SUP AIP / TFR affecting this airport [VIEW]
Communications frequencies: [VIEW]

Runways:

RWY identifierQFULength (ft)Width (ft)SurfaceLDA (ft)
07167359GRAVEL
25167359GRAVEL

Airport contact information

Address: Tartarugalzinho Brazil

Satellite view of SNKV